^^

 

LIPY - Falconara (it-Af, Italy
Distance from station: NNO 36km
Dati ricevuti: 14/04/2024 02:20
Sereno
Sereno
 Vento da S
Vento: S 7 km/h
Temperatura: 12°C
P.to Rugiada: 9°C
Umidità: 82%
Barometro: 1024 hPa
Nuvole: Sereno
Visibility: 10 km
2024/04/14 00:20 LIPY 140020Z AUTO 19004KT 9999 NCD 12/09 Q1024
LIVF - Frontone, Italy
Distance from station: ONO 64km
Dati ricevuti: 14/04/2024 01:55
Sereno
Sereno
 Vento da calmo
Vento: Calma
Temperatura: 16°C
P.to Rugiada: 2°C
Umidità: 39%
Barometro: 1025 hPa
Summary: Sereno
Visibility: superiore a 10 km
2024/04/13 23:55 LIVF 132355Z 00000KT CAVOK 16/02 Q1025
 
LIRZ - Perugia, Italy
Distance from station: OSO 80km
Dati ricevuti: 14/04/2024 02:20
Sereno
Sereno
 Vento da N
Vento: N 9 km/h
Temperatura: 11°C
P.to Rugiada: 11°C
Umidità: 100%
Barometro: 1025 hPa
Nuvole: Sereno
Visibility: 10 km
2024/04/14 00:20 LIRZ 140020Z AUTO 01005KT 9999 NCD 11/11 Q1025
LIRK - Terminillo Mount, Italy
Distance from station: SSO 101km
Dati ricevuti: 14/04/2024 01:55

 Vento da NNO
Vento: NNO 17 km/h
Temperatura: 11°C
P.to Rugiada: 2°C
Umidità: 54%
Barometro: 1033 hPa
2024/04/13 23:55 LIRK 132355Z AUTO 34009KT //// 11/02 Q1033
 
LIPR - Rimini (civ/It-A, Italy
Distance from station: NO 104km
Dati ricevuti: 14/04/2024 02:20
Sereno
Sereno
 Vento da SSO
Vento: SSO 4 km/h
Temperatura: 11°C
P.to Rugiada: 9°C
Umidità: 88%
Barometro: 1024 hPa
Nuvole: Sereno
Visibility: 10 km
2024/04/14 00:20 LIPR 140020Z AUTO 20002KT 9999 NCD 11/09 Q1024
LIBP - Pescara, Italy
Distance from station: SSE 115km
Dati ricevuti: 14/04/2024 02:20
Sereno
Sereno
 Vento da SSO
Vento: SSO 9 km/h
Temperatura: 11°C
P.to Rugiada: 11°C
Umidità: 100%
Barometro: 1025 hPa
Nuvole: Sereno
Visibility: 10 km
2024/04/14 00:20 LIBP 140020Z AUTO 21005KT 9999 NCD 11/11 Q1025